Decoded Metar for KHXD (HILTON HEAD in SC, USA) (IATA:HXD) | Meteo·Mobile Aviation Weather
aviador You're here:

KHXD Decoded Metar

HILTON HEAD in SC, USA
Report Time2018-10-22 12:50:00
UTC Time2018-10-22 13:52:30
Flight Rules vfr VFR
Wind030° at 10 kt
W.Decomp.*RWY 03: 9.9 kt HW 1.2 kt RCW
W.Rank030° ranks 5
Current wind is above 030° avg. (7.4)
Visibility9999 m
Phenomena:N/A
Clouds:N/A
Expected CloudBase > 4,000 ft AGL from Temp-Dew spread
CeilingNone
Temp15°C (ISA 0)
Dew Point05°C (51% RH)
AAT10.3°C
QNH1026 hPa
Density Alt-292 ft
Elevation20 ft
Report Wrong Elevation
Raw Report
METAR KHXD 221250Z 03010KT 10SM CLR 15/05 A3030=

Extra information for KHXD:More info

Metar Taf Metar & Taf Last 4 Metars F.Rules Stats Wind Profile Meteogram Temp Stats Airport Information Weather charts Add Link Nearby VenuesMetar ALERT Operation Metar Decoded Social comments

AIRNAV info for KHXD